sensor_id;sensor_type;location;lat;lon;timestamp;P1;durP1;ratioP1;P2;durP2;ratioP2
4806;SDS011;2417;52.482;13.432;2022-08-19T00:01:41;21.53;;;15.43;;
4806;SDS011;2417;52.482;13.432;2022-08-19T00:04:18;18.90;;;15.23;;
4806;SDS011;2417;52.482;13.432;2022-08-19T00:06:46;18.00;;;14.60;;
4806;SDS011;2417;52.482;13.432;2022-08-19T00:09:16;20.00;;;14.90;;
4806;SDS011;2417;52.482;13.432;2022-08-19T00:11:44;18.87;;;14.80;;
4806;SDS011;2417;52.482;13.432;2022-08-19T00:14:13;27.20;;;19.07;;
4806;SDS011;2417;52.482;13.432;2022-08-19T00:16:44;21.80;;;16.57;;
4806;SDS011;2417;52.482;13.432;2022-08-19T00:19:12;23.53;;;17.23;;
4806;SDS011;2417;52.482;13.432;2022-08-19T00:21:40;35.10;;;21.73;;
4806;SDS011;2417;52.482;13.432;2022-08-19T00:24:09;24.30;;;17.67;;
4806;SDS011;2417;52.482;13.432;2022-08-19T00:26:37;26.03;;;20.00;;
4806;SDS011;2417;52.482;13.432;2022-08-19T00:29:06;24.10;;;17.90;;
4806;SDS011;2417;52.482;13.432;2022-08-19T00:31:34;22.33;;;18.07;;
4806;SDS011;2417;52.482;13.432;2022-08-19T00:34:04;25.80;;;18.70;;
4806;SDS011;2417;52.482;13.432;2022-08-19T00:36:32;22.40;;;16.87;;
4806;SDS011;2417;52.482;13.432;2022-08-19T00:39:00;28.77;;;20.93;;
4806;SDS011;2417;52.482;13.432;2022-08-19T00:41:29;24.07;;;17.07;;
4806;SDS011;2417;52.482;13.432;2022-08-19T00:43:57;26.83;;;17.80;;
4806;SDS011;2417;52.482;13.432;2022-08-19T00:46:26;24.10;;;18.00;;
4806;SDS011;2417;52.482;13.432;2022-08-19T00:48:54;26.07;;;18.23;;
4806;SDS011;2417;52.482;13.432;2022-08-19T00:51:25;23.80;;;18.00;;
4806;SDS011;2417;52.482;13.432;2022-08-19T00:53:54;27.17;;;19.10;;
4806;SDS011;2417;52.482;13.432;2022-08-19T00:56:22;25.43;;;20.50;;
4806;SDS011;2417;52.482;13.432;2022-08-19T00:58:50;27.37;;;20.10;;
4806;SDS011;2417;52.482;13.432;2022-08-19T01:01:18;32.10;;;21.40;;
4806;SDS011;2417;52.482;13.432;2022-08-19T01:03:46;28.30;;;21.27;;
4806;SDS011;2417;52.482;13.432;2022-08-19T01:06:25;39.13;;;22.93;;
4806;SDS011;2417;52.482;13.432;2022-08-19T01:08:54;37.53;;;23.90;;
4806;SDS011;2417;52.482;13.432;2022-08-19T01:11:21;33.00;;;22.97;;
4806;SDS011;2417;52.482;13.432;2022-08-19T01:13:50;48.20;;;26.07;;
4806;SDS011;2417;52.482;13.432;2022-08-19T01:16:20;32.03;;;24.73;;
4806;SDS011;2417;52.482;13.432;2022-08-19T01:18:49;31.70;;;24.10;;
4806;SDS011;2417;52.482;13.432;2022-08-19T01:21:18;49.67;;;25.80;;
4806;SDS011;2417;52.482;13.432;2022-08-19T01:23:49;36.33;;;26.80;;
4806;SDS011;2417;52.482;13.432;2022-08-19T01:26:18;33.80;;;26.00;;
4806;SDS011;2417;52.482;13.432;2022-08-19T01:28:48;40.93;;;27.60;;
4806;SDS011;2417;52.482;13.432;2022-08-19T01:31:18;39.10;;;27.43;;
4806;SDS011;2417;52.482;13.432;2022-08-19T01:33:54;66.30;;;29.70;;
4806;SDS011;2417;52.482;13.432;2022-08-19T01:36:23;113.00;;;33.23;;
4806;SDS011;2417;52.482;13.432;2022-08-19T01:38:53;51.93;;;32.10;;
4806;SDS011;2417;52.482;13.432;2022-08-19T01:41:21;48.70;;;32.57;;
4806;SDS011;2417;52.482;13.432;2022-08-19T01:43:50;59.83;;;32.70;;
4806;SDS011;2417;52.482;13.432;2022-08-19T01:46:38;85.10;;;33.90;;
4806;SDS011;2417;52.482;13.432;2022-08-19T01:49:06;40.57;;;31.23;;
4806;SDS011;2417;52.482;13.432;2022-08-19T01:51:34;99.17;;;33.70;;
4806;SDS011;2417;52.482;13.432;2022-08-19T01:54:07;56.47;;;31.77;;
4806;SDS011;2417;52.482;13.432;2022-08-19T01:56:34;42.27;;;31.87;;
4806;SDS011;2417;52.482;13.432;2022-08-19T01:59:03;72.83;;;34.20;;
4806;SDS011;2417;52.482;13.432;2022-08-19T02:01:32;111.33;;;37.90;;
4806;SDS011;2417;52.482;13.432;2022-08-19T02:04:01;3.97;;;1.90;;
4806;SDS011;2417;52.482;13.432;2022-08-19T02:06:29;9.83;;;3.23;;
4806;SDS011;2417;52.482;13.432;2022-08-19T02:09:27;9.10;;;2.30;;
4806;SDS011;2417;52.482;13.432;2022-08-19T02:11:55;5.73;;;2.93;;
4806;SDS011;2417;52.482;13.432;2022-08-19T02:14:23;6.57;;;2.63;;
4806;SDS011;2417;52.482;13.432;2022-08-19T02:16:51;14.40;;;3.17;;
4806;SDS011;2417;52.482;13.432;2022-08-19T02:19:19;5.80;;;2.80;;
4806;SDS011;2417;52.482;13.432;2022-08-19T02:21:46;7.23;;;2.67;;
4806;SDS011;2417;52.482;13.432;2022-08-19T02:24:14;7.07;;;2.00;;
4806;SDS011;2417;52.482;13.432;2022-08-19T02:26:44;4.60;;;2.23;;
4806;SDS011;2417;52.482;13.432;2022-08-19T02:29:11;6.67;;;2.20;;
4806;SDS011;2417;52.482;13.432;2022-08-19T02:31:39;6.53;;;2.50;;
4806;SDS011;2417;52.482;13.432;2022-08-19T02:34:07;17.90;;;11.70;;
4806;SDS011;2417;52.482;13.432;2022-08-19T02:36:34;47.20;;;33.77;;
4806;SDS011;2417;52.482;13.432;2022-08-19T02:39:08;55.97;;;36.80;;
4806;SDS011;2417;52.482;13.432;2022-08-19T02:41:35;72.33;;;40.60;;
4806;SDS011;2417;52.482;13.432;2022-08-19T02:44:04;65.83;;;41.20;;
4806;SDS011;2417;52.482;13.432;2022-08-19T02:46:52;299.30;;;212.37;;
4806;SDS011;2417;52.482;13.432;2022-08-19T02:49:21;290.23;;;194.07;;
4806;SDS011;2417;52.482;13.432;2022-08-19T02:51:49;390.03;;;266.33;;
4806;SDS011;2417;52.482;13.432;2022-08-19T02:54:17;529.87;;;384.77;;
4806;SDS011;2417;52.482;13.432;2022-08-19T02:56:45;489.13;;;312.37;;
4806;SDS011;2417;52.482;13.432;2022-08-19T02:59:14;737.70;;;502.00;;
4806;SDS011;2417;52.482;13.432;2022-08-19T03:01:42;611.37;;;432.40;;
4806;SDS011;2417;52.482;13.432;2022-08-19T03:04:14;453.77;;;280.53;;
4806;SDS011;2417;52.482;13.432;2022-08-19T03:06:43;168.00;;;102.60;;
4806;SDS011;2417;52.482;13.432;2022-08-19T03:09:12;151.00;;;84.23;;
4806;SDS011;2417;52.482;13.432;2022-08-19T03:11:40;84.40;;;54.90;;
4806;SDS011;2417;52.482;13.432;2022-08-19T03:14:08;78.23;;;50.03;;
4806;SDS011;2417;52.482;13.432;2022-08-19T03:16:41;67.10;;;45.40;;
4806;SDS011;2417;52.482;13.432;2022-08-19T03:19:09;68.27;;;44.67;;
4806;SDS011;2417;52.482;13.432;2022-08-19T03:21:37;71.57;;;47.10;;
4806;SDS011;2417;52.482;13.432;2022-08-19T03:24:06;65.10;;;43.67;;
4806;SDS011;2417;52.482;13.432;2022-08-19T03:26:37;60.93;;;40.63;;
4806;SDS011;2417;52.482;13.432;2022-08-19T03:29:05;62.03;;;41.60;;
4806;SDS011;2417;52.482;13.432;2022-08-19T03:31:35;65.10;;;42.43;;
4806;SDS011;2417;52.482;13.432;2022-08-19T03:34:20;66.10;;;40.87;;
4806;SDS011;2417;52.482;13.432;2022-08-19T03:36:48;58.47;;;38.60;;
4806;SDS011;2417;52.482;13.432;2022-08-19T03:39:16;59.10;;;40.10;;
4806;SDS011;2417;52.482;13.432;2022-08-19T03:41:44;56.47;;;38.30;;
4806;SDS011;2417;52.482;13.432;2022-08-19T03:44:15;61.43;;;40.63;;
4806;SDS011;2417;52.482;13.432;2022-08-19T03:46:45;57.10;;;40.03;;
4806;SDS011;2417;52.482;13.432;2022-08-19T03:49:13;58.50;;;39.33;;
4806;SDS011;2417;52.482;13.432;2022-08-19T03:51:45;56.10;;;39.50;;
4806;SDS011;2417;52.482;13.432;2022-08-19T03:54:14;57.40;;;39.80;;
4806;SDS011;2417;52.482;13.432;2022-08-19T03:56:43;58.73;;;41.23;;
4806;SDS011;2417;52.482;13.432;2022-08-19T03:59:12;61.93;;;40.43;;
4806;SDS011;2417;52.482;13.432;2022-08-19T04:01:40;55.77;;;39.50;;
4806;SDS011;2417;52.482;13.432;2022-08-19T04:04:09;54.70;;;39.50;;
4806;SDS011;2417;52.482;13.432;2022-08-19T04:06:37;58.60;;;39.80;;
4806;SDS011;2417;52.482;13.432;2022-08-19T04:09:07;59.73;;;38.50;;
4806;SDS011;2417;52.482;13.432;2022-08-19T04:11:37;56.57;;;39.53;;
4806;SDS011;2417;52.482;13.432;2022-08-19T04:14:10;60.73;;;37.40;;
4806;SDS011;2417;52.482;13.432;2022-08-19T04:16:38;52.87;;;38.20;;
4806;SDS011;2417;52.482;13.432;2022-08-19T04:19:06;51.40;;;34.73;;
4806;SDS011;2417;52.482;13.432;2022-08-19T04:21:34;49.07;;;36.50;;
4806;SDS011;2417;52.482;13.432;2022-08-19T04:24:03;53.10;;;36.17;;
4806;SDS011;2417;52.482;13.432;2022-08-19T04:26:33;52.60;;;35.10;;
4806;SDS011;2417;52.482;13.432;2022-08-19T04:29:03;45.13;;;33.47;;
4806;SDS011;2417;52.482;13.432;2022-08-19T04:31:37;46.50;;;34.30;;
4806;SDS011;2417;52.482;13.432;2022-08-19T04:34:07;45.53;;;34.97;;
4806;SDS011;2417;52.482;13.432;2022-08-19T04:36:38;44.40;;;32.50;;
4806;SDS011;2417;52.482;13.432;2022-08-19T04:39:09;45.93;;;32.53;;
4806;SDS011;2417;52.482;13.432;2022-08-19T04:41:38;44.30;;;32.97;;
4806;SDS011;2417;52.482;13.432;2022-08-19T04:44:24;47.87;;;33.27;;
4806;SDS011;2417;52.482;13.432;2022-08-19T04:46:52;38.80;;;29.63;;
4806;SDS011;2417;52.482;13.432;2022-08-19T04:49:21;43.77;;;31.90;;
4806;SDS011;2417;52.482;13.432;2022-08-19T04:51:49;43.73;;;31.00;;
4806;SDS011;2417;52.482;13.432;2022-08-19T04:54:18;40.43;;;30.10;;
4806;SDS011;2417;52.482;13.432;2022-08-19T04:57:06;38.37;;;27.93;;
4806;SDS011;2417;52.482;13.432;2022-08-19T04:59:36;40.17;;;29.43;;
4806;SDS011;2417;52.482;13.432;2022-08-19T05:02:04;36.60;;;28.10;;
4806;SDS011;2417;52.482;13.432;2022-08-19T05:04:32;35.40;;;28.30;;
4806;SDS011;2417;52.482;13.432;2022-08-19T05:07:00;38.70;;;28.20;;
4806;SDS011;2417;52.482;13.432;2022-08-19T05:09:28;33.60;;;26.87;;
4806;SDS011;2417;52.482;13.432;2022-08-19T05:12:17;39.23;;;27.80;;
4806;SDS011;2417;52.482;13.432;2022-08-19T05:14:45;37.20;;;27.90;;
4806;SDS011;2417;52.482;13.432;2022-08-19T05:17:14;40.23;;;28.97;;
4806;SDS011;2417;52.482;13.432;2022-08-19T05:20:02;32.83;;;25.83;;
4806;SDS011;2417;52.482;13.432;2022-08-19T05:22:49;33.60;;;26.87;;
4806;SDS011;2417;52.482;13.432;2022-08-19T05:25:18;37.77;;;28.13;;
4806;SDS011;2417;52.482;13.432;2022-08-19T05:27:47;32.50;;;26.20;;
4806;SDS011;2417;52.482;13.432;2022-08-19T05:30:16;33.03;;;26.80;;
4806;SDS011;2417;52.482;13.432;2022-08-19T05:33:04;31.43;;;25.33;;
4806;SDS011;2417;52.482;13.432;2022-08-19T05:35:32;26.63;;;22.17;;
4806;SDS011;2417;52.482;13.432;2022-08-19T05:38:00;31.40;;;23.53;;
4806;SDS011;2417;52.482;13.432;2022-08-19T05:40:28;25.30;;;20.50;;
4806;SDS011;2417;52.482;13.432;2022-08-19T05:42:57;29.10;;;21.70;;
4806;SDS011;2417;52.482;13.432;2022-08-19T05:45:25;30.67;;;22.00;;
4806;SDS011;2417;52.482;13.432;2022-08-19T05:47:53;25.73;;;19.77;;
4806;SDS011;2417;52.482;13.432;2022-08-19T05:50:20;25.17;;;19.27;;
4806;SDS011;2417;52.482;13.432;2022-08-19T05:52:49;28.87;;;20.10;;
4806;SDS011;2417;52.482;13.432;2022-08-19T05:55:16;23.90;;;18.63;;
4806;SDS011;2417;52.482;13.432;2022-08-19T05:57:49;27.97;;;19.67;;
4806;SDS011;2417;52.482;13.432;2022-08-19T06:00:20;22.77;;;17.90;;
4806;SDS011;2417;52.482;13.432;2022-08-19T06:02:50;22.87;;;17.53;;
4806;SDS011;2417;52.482;13.432;2022-08-19T06:05:18;31.67;;;19.50;;
4806;SDS011;2417;52.482;13.432;2022-08-19T06:07:46;22.70;;;17.40;;
4806;SDS011;2417;52.482;13.432;2022-08-19T06:10:14;24.03;;;18.33;;
4806;SDS011;2417;52.482;13.432;2022-08-19T06:12:42;25.37;;;19.10;;
4806;SDS011;2417;52.482;13.432;2022-08-19T06:15:11;27.57;;;18.93;;
4806;SDS011;2417;52.482;13.432;2022-08-19T06:17:41;24.60;;;18.33;;
4806;SDS011;2417;52.482;13.432;2022-08-19T06:20:11;21.97;;;18.70;;
4806;SDS011;2417;52.482;13.432;2022-08-19T06:22:40;24.30;;;18.10;;
4806;SDS011;2417;52.482;13.432;2022-08-19T06:25:08;22.97;;;18.07;;
4806;SDS011;2417;52.482;13.432;2022-08-19T06:27:37;29.93;;;17.30;;
4806;SDS011;2417;52.482;13.432;2022-08-19T06:30:26;24.60;;;18.90;;
4806;SDS011;2417;52.482;13.432;2022-08-19T06:32:55;25.67;;;17.80;;
4806;SDS011;2417;52.482;13.432;2022-08-19T06:35:22;23.93;;;18.53;;
4806;SDS011;2417;52.482;13.432;2022-08-19T06:37:51;26.13;;;18.33;;
4806;SDS011;2417;52.482;13.432;2022-08-19T06:40:20;25.37;;;17.77;;
4806;SDS011;2417;52.482;13.432;2022-08-19T06:42:48;25.30;;;19.37;;
4806;SDS011;2417;52.482;13.432;2022-08-19T06:45:22;23.87;;;17.73;;
4806;SDS011;2417;52.482;13.432;2022-08-19T06:48:03;25.60;;;19.40;;
4806;SDS011;2417;52.482;13.432;2022-08-19T06:50:30;22.67;;;17.53;;
4806;SDS011;2417;52.482;13.432;2022-08-19T06:52:58;22.70;;;17.80;;
4806;SDS011;2417;52.482;13.432;2022-08-19T06:55:30;29.43;;;17.60;;
4806;SDS011;2417;52.482;13.432;2022-08-19T06:58:01;22.47;;;17.67;;
4806;SDS011;2417;52.482;13.432;2022-08-19T07:00:30;20.77;;;16.97;;
4806;SDS011;2417;52.482;13.432;2022-08-19T07:02:58;25.40;;;17.73;;
4806;SDS011;2417;52.482;13.432;2022-08-19T07:05:33;24.10;;;17.53;;
4806;SDS011;2417;52.482;13.432;2022-08-19T07:08:04;23.43;;;18.10;;
4806;SDS011;2417;52.482;13.432;2022-08-19T07:10:32;26.93;;;19.10;;
4806;SDS011;2417;52.482;13.432;2022-08-19T07:13:01;25.50;;;18.70;;
4806;SDS011;2417;52.482;13.432;2022-08-19T07:15:29;26.27;;;18.67;;
4806;SDS011;2417;52.482;13.432;2022-08-19T07:17:57;25.23;;;18.40;;
4806;SDS011;2417;52.482;13.432;2022-08-19T07:20:25;24.60;;;18.23;;
4806;SDS011;2417;52.482;13.432;2022-08-19T07:22:56;24.73;;;18.63;;
4806;SDS011;2417;52.482;13.432;2022-08-19T07:25:23;28.63;;;17.37;;
4806;SDS011;2417;52.482;13.432;2022-08-19T07:27:58;24.80;;;17.60;;
4806;SDS011;2417;52.482;13.432;2022-08-19T07:30:27;23.20;;;18.07;;
4806;SDS011;2417;52.482;13.432;2022-08-19T07:32:57;26.80;;;18.90;;
4806;SDS011;2417;52.482;13.432;2022-08-19T07:35:29;25.53;;;17.50;;
4806;SDS011;2417;52.482;13.432;2022-08-19T07:38:00;28.83;;;18.33;;
4806;SDS011;2417;52.482;13.432;2022-08-19T07:40:30;23.77;;;17.70;;
4806;SDS011;2417;52.482;13.432;2022-08-19T07:42:58;25.23;;;18.80;;
4806;SDS011;2417;52.482;13.432;2022-08-19T07:45:25;26.23;;;19.30;;
4806;SDS011;2417;52.482;13.432;2022-08-19T07:47:54;24.53;;;19.13;;
4806;SDS011;2417;52.482;13.432;2022-08-19T07:50:22;24.90;;;19.23;;
4806;SDS011;2417;52.482;13.432;2022-08-19T07:52:50;24.93;;;19.77;;
4806;SDS011;2417;52.482;13.432;2022-08-19T07:55:21;28.97;;;19.97;;
4806;SDS011;2417;52.482;13.432;2022-08-19T07:58:09;28.20;;;20.30;;
4806;SDS011;2417;52.482;13.432;2022-08-19T08:00:37;28.17;;;19.97;;
4806;SDS011;2417;52.482;13.432;2022-08-19T08:03:05;27.03;;;20.87;;
4806;SDS011;2417;52.482;13.432;2022-08-19T08:05:34;26.37;;;19.97;;
4806;SDS011;2417;52.482;13.432;2022-08-19T08:08:20;94.17;;;63.83;;
4806;SDS011;2417;52.482;13.432;2022-08-19T08:11:12;31.23;;;21.77;;
4806;SDS011;2417;52.482;13.432;2022-08-19T08:13:41;27.80;;;21.53;;
4806;SDS011;2417;52.482;13.432;2022-08-19T08:16:09;31.53;;;23.33;;
4806;SDS011;2417;52.482;13.432;2022-08-19T08:18:40;28.70;;;21.63;;
4806;SDS011;2417;52.482;13.432;2022-08-19T08:21:16;32.00;;;22.03;;
4806;SDS011;2417;52.482;13.432;2022-08-19T08:23:43;27.37;;;22.43;;
4806;SDS011;2417;52.482;13.432;2022-08-19T08:26:13;28.57;;;22.40;;
4806;SDS011;2417;52.482;13.432;2022-08-19T08:28:44;39.70;;;26.53;;
4806;SDS011;2417;52.482;13.432;2022-08-19T08:31:15;31.13;;;23.77;;
4806;SDS011;2417;52.482;13.432;2022-08-19T08:33:45;29.33;;;21.30;;
4806;SDS011;2417;52.482;13.432;2022-08-19T08:36:14;28.60;;;21.03;;
4806;SDS011;2417;52.482;13.432;2022-08-19T08:38:43;25.20;;;21.20;;
4806;SDS011;2417;52.482;13.432;2022-08-19T08:41:16;31.60;;;21.50;;
4806;SDS011;2417;52.482;13.432;2022-08-19T08:43:47;31.37;;;20.53;;
4806;SDS011;2417;52.482;13.432;2022-08-19T08:46:15;29.90;;;21.63;;
4806;SDS011;2417;52.482;13.432;2022-08-19T08:49:00;27.77;;;20.30;;
4806;SDS011;2417;52.482;13.432;2022-08-19T08:51:29;26.00;;;20.27;;
4806;SDS011;2417;52.482;13.432;2022-08-19T08:54:01;24.90;;;19.80;;
4806;SDS011;2417;52.482;13.432;2022-08-19T08:56:31;29.90;;;22.43;;
4806;SDS011;2417;52.482;13.432;2022-08-19T08:58:59;29.00;;;22.77;;
4806;SDS011;2417;52.482;13.432;2022-08-19T09:01:28;30.70;;;22.60;;
4806;SDS011;2417;52.482;13.432;2022-08-19T09:03:56;29.17;;;22.10;;
4806;SDS011;2417;52.482;13.432;2022-08-19T09:06:31;29.00;;;22.67;;
4806;SDS011;2417;52.482;13.432;2022-08-19T09:09:01;29.57;;;22.80;;
4806;SDS011;2417;52.482;13.432;2022-08-19T09:11:49;27.27;;;22.00;;
4806;SDS011;2417;52.482;13.432;2022-08-19T09:14:24;26.40;;;22.27;;
4806;SDS011;2417;52.482;13.432;2022-08-19T09:17:16;35.70;;;22.40;;
4806;SDS011;2417;52.482;13.432;2022-08-19T09:19:48;31.90;;;23.27;;
4806;SDS011;2417;52.482;13.432;2022-08-19T09:22:17;36.17;;;22.70;;
4806;SDS011;2417;52.482;13.432;2022-08-19T09:24:53;28.53;;;22.77;;
4806;SDS011;2417;52.482;13.432;2022-08-19T09:27:22;27.73;;;22.90;;
4806;SDS011;2417;52.482;13.432;2022-08-19T09:30:14;32.30;;;22.10;;
4806;SDS011;2417;52.482;13.432;2022-08-19T09:32:43;26.60;;;20.90;;
4806;SDS011;2417;52.482;13.432;2022-08-19T09:35:12;30.33;;;21.33;;
4806;SDS011;2417;52.482;13.432;2022-08-19T09:37:40;24.73;;;21.37;;
4806;SDS011;2417;52.482;13.432;2022-08-19T09:40:10;29.27;;;21.67;;
4806;SDS011;2417;52.482;13.432;2022-08-19T09:42:40;28.23;;;21.33;;
4806;SDS011;2417;52.482;13.432;2022-08-19T09:45:19;27.00;;;21.20;;
4806;SDS011;2417;52.482;13.432;2022-08-19T09:47:48;27.00;;;21.00;;
4806;SDS011;2417;52.482;13.432;2022-08-19T09:50:19;29.10;;;21.30;;
4806;SDS011;2417;52.482;13.432;2022-08-19T09:52:48;25.03;;;21.03;;
4806;SDS011;2417;52.482;13.432;2022-08-19T09:55:24;31.07;;;21.00;;
4806;SDS011;2417;52.482;13.432;2022-08-19T09:57:58;27.00;;;22.07;;
4806;SDS011;2417;52.482;13.432;2022-08-19T10:00:26;30.13;;;21.93;;
4806;SDS011;2417;52.482;13.432;2022-08-19T10:02:53;27.17;;;21.47;;
4806;SDS011;2417;52.482;13.432;2022-08-19T10:05:22;29.70;;;21.20;;
4806;SDS011;2417;52.482;13.432;2022-08-19T10:08:08;26.63;;;20.93;;
4806;SDS011;2417;52.482;13.432;2022-08-19T10:10:39;28.10;;;21.87;;
4806;SDS011;2417;52.482;13.432;2022-08-19T10:13:14;30.10;;;22.90;;
4806;SDS011;2417;52.482;13.432;2022-08-19T10:15:42;29.30;;;21.97;;
4806;SDS011;2417;52.482;13.432;2022-08-19T10:18:14;31.10;;;22.90;;
4806;SDS011;2417;52.482;13.432;2022-08-19T10:20:43;29.23;;;22.27;;
4806;SDS011;2417;52.482;13.432;2022-08-19T10:23:17;28.93;;;21.43;;
4806;SDS011;2417;52.482;13.432;2022-08-19T10:25:45;24.50;;;20.00;;
4806;SDS011;2417;52.482;13.432;2022-08-19T10:28:15;25.50;;;20.10;;
4806;SDS011;2417;52.482;13.432;2022-08-19T10:30:45;26.50;;;21.30;;
4806;SDS011;2417;52.482;13.432;2022-08-19T10:33:14;33.30;;;21.20;;
4806;SDS011;2417;52.482;13.432;2022-08-19T10:36:02;26.57;;;18.67;;
4806;SDS011;2417;52.482;13.432;2022-08-19T10:38:30;40.27;;;19.77;;
4806;SDS011;2417;52.482;13.432;2022-08-19T10:41:05;23.83;;;19.90;;
4806;SDS011;2417;52.482;13.432;2022-08-19T10:43:35;27.47;;;20.30;;
4806;SDS011;2417;52.482;13.432;2022-08-19T10:46:04;33.77;;;21.43;;
4806;SDS011;2417;52.482;13.432;2022-08-19T10:48:39;25.63;;;20.80;;
4806;SDS011;2417;52.482;13.432;2022-08-19T10:51:08;43.70;;;27.47;;
4806;SDS011;2417;52.482;13.432;2022-08-19T10:53:54;31.70;;;25.70;;
4806;SDS011;2417;52.482;13.432;2022-08-19T10:56:22;38.90;;;29.93;;
4806;SDS011;2417;52.482;13.432;2022-08-19T10:59:08;45.03;;;31.77;;
4806;SDS011;2417;52.482;13.432;2022-08-19T11:01:38;36.63;;;25.47;;
4806;SDS011;2417;52.482;13.432;2022-08-19T11:04:06;55.50;;;37.40;;
4806;SDS011;2417;52.482;13.432;2022-08-19T11:06:37;52.00;;;31.10;;
4806;SDS011;2417;52.482;13.432;2022-08-19T11:09:08;53.93;;;34.83;;
4806;SDS011;2417;52.482;13.432;2022-08-19T11:11:37;51.90;;;34.73;;
4806;SDS011;2417;52.482;13.432;2022-08-19T11:14:13;32.53;;;23.90;;
4806;SDS011;2417;52.482;13.432;2022-08-19T11:16:41;39.13;;;26.20;;
4806;SDS011;2417;52.482;13.432;2022-08-19T11:19:10;50.07;;;30.07;;
4806;SDS011;2417;52.482;13.432;2022-08-19T11:21:40;29.70;;;22.20;;
4806;SDS011;2417;52.482;13.432;2022-08-19T11:24:10;29.17;;;21.80;;
4806;SDS011;2417;52.482;13.432;2022-08-19T11:26:38;28.67;;;20.87;;
4806;SDS011;2417;52.482;13.432;2022-08-19T11:29:07;32.30;;;18.93;;
4806;SDS011;2417;52.482;13.432;2022-08-19T11:31:40;26.40;;;20.30;;
4806;SDS011;2417;52.482;13.432;2022-08-19T11:34:09;27.33;;;18.73;;
4806;SDS011;2417;52.482;13.432;2022-08-19T11:36:38;29.67;;;18.87;;
4806;SDS011;2417;52.482;13.432;2022-08-19T11:39:07;21.63;;;18.00;;
4806;SDS011;2417;52.482;13.432;2022-08-19T11:41:35;23.03;;;17.60;;
4806;SDS011;2417;52.482;13.432;2022-08-19T11:44:03;25.97;;;17.63;;
4806;SDS011;2417;52.482;13.432;2022-08-19T11:46:30;22.87;;;17.23;;
4806;SDS011;2417;52.482;13.432;2022-08-19T11:48:59;23.00;;;17.27;;
4806;SDS011;2417;52.482;13.432;2022-08-19T11:51:29;23.00;;;16.33;;
4806;SDS011;2417;52.482;13.432;2022-08-19T11:53:57;20.93;;;16.47;;
4806;SDS011;2417;52.482;13.432;2022-08-19T11:56:27;19.47;;;16.57;;
4806;SDS011;2417;52.482;13.432;2022-08-19T11:58:55;22.83;;;16.60;;
4806;SDS011;2417;52.482;13.432;2022-08-19T12:01:24;23.20;;;15.93;;
4806;SDS011;2417;52.482;13.432;2022-08-19T12:03:53;26.20;;;15.13;;
4806;SDS011;2417;52.482;13.432;2022-08-19T12:06:23;19.63;;;16.97;;
4806;SDS011;2417;52.482;13.432;2022-08-19T12:08:56;19.90;;;15.90;;
4806;SDS011;2417;52.482;13.432;2022-08-19T12:11:23;18.80;;;15.33;;
4806;SDS011;2417;52.482;13.432;2022-08-19T12:13:52;23.80;;;15.47;;
4806;SDS011;2417;52.482;13.432;2022-08-19T12:16:20;24.30;;;15.73;;
4806;SDS011;2417;52.482;13.432;2022-08-19T12:18:50;20.03;;;14.40;;
4806;SDS011;2417;52.482;13.432;2022-08-19T12:21:19;22.30;;;15.07;;
4806;SDS011;2417;52.482;13.432;2022-08-19T12:23:49;18.60;;;14.40;;
4806;SDS011;2417;52.482;13.432;2022-08-19T12:26:21;18.37;;;14.20;;
4806;SDS011;2417;52.482;13.432;2022-08-19T12:28:49;19.10;;;13.80;;
4806;SDS011;2417;52.482;13.432;2022-08-19T12:31:17;19.30;;;14.40;;
4806;SDS011;2417;52.482;13.432;2022-08-19T12:33:46;17.50;;;14.03;;
4806;SDS011;2417;52.482;13.432;2022-08-19T12:36:15;19.03;;;14.17;;
4806;SDS011;2417;52.482;13.432;2022-08-19T12:38:44;17.67;;;13.00;;
4806;SDS011;2417;52.482;13.432;2022-08-19T12:41:14;17.27;;;13.63;;
4806;SDS011;2417;52.482;13.432;2022-08-19T12:43:44;16.80;;;13.70;;
4806;SDS011;2417;52.482;13.432;2022-08-19T12:46:11;18.23;;;13.63;;
4806;SDS011;2417;52.482;13.432;2022-08-19T12:48:42;19.07;;;13.70;;
4806;SDS011;2417;52.482;13.432;2022-08-19T12:51:12;17.17;;;12.50;;
4806;SDS011;2417;52.482;13.432;2022-08-19T12:53:40;16.77;;;12.90;;
4806;SDS011;2417;52.482;13.432;2022-08-19T12:56:09;17.93;;;12.10;;
4806;SDS011;2417;52.482;13.432;2022-08-19T12:58:40;16.53;;;13.03;;
4806;SDS011;2417;52.482;13.432;2022-08-19T13:01:15;19.83;;;13.60;;
4806;SDS011;2417;52.482;13.432;2022-08-19T13:03:48;22.20;;;12.77;;
4806;SDS011;2417;52.482;13.432;2022-08-19T13:06:16;18.47;;;12.63;;
4806;SDS011;2417;52.482;13.432;2022-08-19T13:08:46;20.20;;;13.97;;
4806;SDS011;2417;52.482;13.432;2022-08-19T13:11:14;18.43;;;13.40;;
4806;SDS011;2417;52.482;13.432;2022-08-19T13:13:46;20.27;;;13.20;;
4806;SDS011;2417;52.482;13.432;2022-08-19T13:16:14;19.27;;;15.00;;
4806;SDS011;2417;52.482;13.432;2022-08-19T13:18:42;19.03;;;14.50;;
4806;SDS011;2417;52.482;13.432;2022-08-19T13:21:12;17.03;;;13.80;;
4806;SDS011;2417;52.482;13.432;2022-08-19T13:23:40;19.50;;;14.60;;
4806;SDS011;2417;52.482;13.432;2022-08-19T13:26:09;19.90;;;14.43;;
4806;SDS011;2417;52.482;13.432;2022-08-19T13:28:38;18.60;;;14.33;;
4806;SDS011;2417;52.482;13.432;2022-08-19T13:31:26;19.10;;;14.70;;
4806;SDS011;2417;52.482;13.432;2022-08-19T13:34:11;22.00;;;14.80;;
4806;SDS011;2417;52.482;13.432;2022-08-19T13:36:39;18.40;;;13.90;;
4806;SDS011;2417;52.482;13.432;2022-08-19T13:39:08;19.20;;;15.00;;
4806;SDS011;2417;52.482;13.432;2022-08-19T13:41:36;21.53;;;15.57;;
4806;SDS011;2417;52.482;13.432;2022-08-19T13:44:04;18.90;;;15.47;;
4806;SDS011;2417;52.482;13.432;2022-08-19T13:46:34;23.73;;;15.50;;
4806;SDS011;2417;52.482;13.432;2022-08-19T13:49:02;18.50;;;14.87;;
4806;SDS011;2417;52.482;13.432;2022-08-19T13:51:30;20.27;;;15.60;;
4806;SDS011;2417;52.482;13.432;2022-08-19T13:53:58;18.67;;;15.20;;
4806;SDS011;2417;52.482;13.432;2022-08-19T13:56:25;19.80;;;14.60;;
4806;SDS011;2417;52.482;13.432;2022-08-19T13:58:53;20.77;;;15.17;;
4806;SDS011;2417;52.482;13.432;2022-08-19T14:01:25;20.60;;;15.33;;
4806;SDS011;2417;52.482;13.432;2022-08-19T14:03:54;20.70;;;14.70;;
4806;SDS011;2417;52.482;13.432;2022-08-19T14:06:22;19.70;;;15.43;;
4806;SDS011;2417;52.482;13.432;2022-08-19T14:08:49;22.30;;;15.47;;
4806;SDS011;2417;52.482;13.432;2022-08-19T14:11:18;20.03;;;15.70;;
4806;SDS011;2417;52.482;13.432;2022-08-19T14:13:46;24.57;;;15.93;;
4806;SDS011;2417;52.482;13.432;2022-08-19T14:16:14;19.47;;;15.53;;
4806;SDS011;2417;52.482;13.432;2022-08-19T14:18:42;20.07;;;15.50;;
4806;SDS011;2417;52.482;13.432;2022-08-19T14:21:32;19.80;;;15.00;;
4806;SDS011;2417;52.482;13.432;2022-08-19T14:24:07;20.00;;;15.83;;
4806;SDS011;2417;52.482;13.432;2022-08-19T14:26:34;20.00;;;14.90;;
4806;SDS011;2417;52.482;13.432;2022-08-19T14:29:02;19.57;;;14.77;;
4806;SDS011;2417;52.482;13.432;2022-08-19T14:31:30;21.30;;;16.03;;
4806;SDS011;2417;52.482;13.432;2022-08-19T14:33:57;24.60;;;16.67;;
4806;SDS011;2417;52.482;13.432;2022-08-19T14:36:26;20.07;;;16.40;;
4806;SDS011;2417;52.482;13.432;2022-08-19T14:38:55;20.83;;;16.13;;
4806;SDS011;2417;52.482;13.432;2022-08-19T14:41:23;19.20;;;15.90;;
4806;SDS011;2417;52.482;13.432;2022-08-19T14:43:53;21.83;;;15.37;;
4806;SDS011;2417;52.482;13.432;2022-08-19T14:46:22;23.20;;;15.50;;
4806;SDS011;2417;52.482;13.432;2022-08-19T14:48:53;20.50;;;15.17;;
4806;SDS011;2417;52.482;13.432;2022-08-19T14:51:22;19.50;;;15.93;;
4806;SDS011;2417;52.482;13.432;2022-08-19T14:53:50;17.60;;;14.37;;
4806;SDS011;2417;52.482;13.432;2022-08-19T14:56:20;19.30;;;15.30;;